createdAt,value
2023-04-07T00:01:57.573Z,18.00
2023-04-07T00:04:24.979Z,20.17
2023-04-07T00:06:52.111Z,19.25
2023-04-07T00:09:19.179Z,20.38
2023-04-07T00:11:46.176Z,20.88
2023-04-07T00:14:13.225Z,19.13
2023-04-07T00:16:40.599Z,20.65
2023-04-07T00:19:07.683Z,16.02
2023-04-07T00:21:34.709Z,20.13
2023-04-07T00:24:01.787Z,19.23
2023-04-07T00:26:34.283Z,18.35
2023-04-07T00:29:01.430Z,18.80
2023-04-07T00:31:28.497Z,16.90
2023-04-07T00:33:57.767Z,16.08
2023-04-07T00:36:27.144Z,17.30
2023-04-07T00:38:54.196Z,16.98
2023-04-07T00:41:21.170Z,17.35
2023-04-07T00:43:51.912Z,20.73
2023-04-07T00:46:24.156Z,16.30
2023-04-07T00:48:52.960Z,17.58
2023-04-07T00:51:23.004Z,17.17
2023-04-07T00:53:50.386Z,17.33
2023-04-07T00:56:17.741Z,17.33
2023-04-07T00:58:44.843Z,17.67
2023-04-07T01:01:30.948Z,17.65
2023-04-07T01:04:07.398Z,17.05
2023-04-07T01:06:40.549Z,17.60
2023-04-07T01:09:37.817Z,20.02
2023-04-07T01:12:58.807Z,19.05
2023-04-07T01:15:30.831Z,17.55
2023-04-07T01:18:11.326Z,16.80
2023-04-07T01:20:40.448Z,18.80
2023-04-07T01:23:08.827Z,17.20
2023-04-07T01:26:07.811Z,17.45
2023-04-07T01:29:00.998Z,17.00
2023-04-07T01:34:01.545Z,16.73
2023-04-07T01:36:32.167Z,17.40
2023-04-07T01:39:01.249Z,20.08
2023-04-07T01:41:31.098Z,14.75
2023-04-07T01:44:05.112Z,19.42
2023-04-07T01:46:43.904Z,17.63
2023-04-07T01:49:18.940Z,16.35
2023-04-07T01:51:52.738Z,17.92
2023-04-07T01:54:28.305Z,17.52
2023-04-07T01:56:58.549Z,17.80
2023-04-07T01:59:26.454Z,16.15
2023-04-07T02:01:58.332Z,17.58
2023-04-07T02:04:47.897Z,18.45
2023-04-07T02:07:24.908Z,19.52
2023-04-07T02:10:05.935Z,17.13
2023-04-07T02:12:37.301Z,16.73
2023-04-07T02:15:15.690Z,18.30
2023-04-07T02:17:51.220Z,14.57
2023-04-07T02:20:21.309Z,18.00
2023-04-07T02:22:48.614Z,17.73
2023-04-07T02:25:26.675Z,17.20
2023-04-07T02:27:56.512Z,17.25
2023-04-07T02:30:27.974Z,17.40
2023-04-07T02:32:57.640Z,14.45
2023-04-07T02:35:25.551Z,18.10
2023-04-07T02:37:52.729Z,16.60
2023-04-07T02:40:19.960Z,19.17
2023-04-07T02:42:47.655Z,16.13
2023-04-07T02:45:15.151Z,15.68
2023-04-07T02:47:43.498Z,14.10
2023-04-07T02:50:11.322Z,20.42
2023-04-07T02:52:38.800Z,16.35
2023-04-07T02:55:11.902Z,15.50
2023-04-07T02:57:39.771Z,17.52
2023-04-07T03:00:15.949Z,18.00
2023-04-07T03:03:11.658Z,17.48
2023-04-07T03:05:41.884Z,18.63
2023-04-07T03:08:12.821Z,14.50
2023-04-07T03:10:44.056Z,14.52
2023-04-07T03:13:16.525Z,16.10
2023-04-07T03:15:44.754Z,14.07
2023-04-07T03:18:12.813Z,16.75
2023-04-07T03:20:42.628Z,16.70
2023-04-07T03:23:11.777Z,15.45
2023-04-07T03:25:38.881Z,13.85
2023-04-07T03:28:06.873Z,15.23
2023-04-07T03:30:41.293Z,15.23
2023-04-07T03:33:16.610Z,15.63
2023-04-07T03:35:44.664Z,15.85
2023-04-07T03:38:13.721Z,16.25
2023-04-07T03:40:46.420Z,15.98
2023-04-07T03:43:15.780Z,13.70
2023-04-07T03:45:44.575Z,15.18
2023-04-07T03:48:12.423Z,14.02
2023-04-07T03:50:49.208Z,17.73
2023-04-07T03:53:21.695Z,20.83
2023-04-07T03:55:50.790Z,22.58
2023-04-07T03:58:27.245Z,26.25
2023-04-07T04:00:54.489Z,19.52
2023-04-07T04:03:25.122Z,24.67
2023-04-07T04:06:21.971Z,15.40
2023-04-07T04:08:50.200Z,15.25
2023-04-07T04:11:19.287Z,18.40
2023-04-07T04:13:56.291Z,17.15
2023-04-07T04:16:24.043Z,17.42
2023-04-07T04:18:53.504Z,13.60
2023-04-07T04:21:21.931Z,16.20
2023-04-07T04:23:49.243Z,15.50
2023-04-07T04:26:16.938Z,16.02
2023-04-07T04:28:45.596Z,14.38
2023-04-07T04:31:14.134Z,16.48
2023-04-07T04:33:44.408Z,14.95
2023-04-07T04:36:11.949Z,14.55
2023-04-07T04:38:39.323Z,15.23
2023-04-07T04:41:16.358Z,12.55
2023-04-07T04:43:44.207Z,11.68
2023-04-07T04:46:18.065Z,13.27
2023-04-07T04:48:49.179Z,12.57
2023-04-07T04:51:19.173Z,19.60
2023-04-07T04:53:50.513Z,16.38
2023-04-07T04:56:18.455Z,15.55
2023-04-07T04:58:48.860Z,14.35
2023-04-07T05:01:33.453Z,14.10
2023-04-07T05:04:10.576Z,16.67
2023-04-07T05:06:42.611Z,14.60
2023-04-07T05:09:12.478Z,17.25
2023-04-07T05:11:49.840Z,14.20
2023-04-07T05:14:16.990Z,18.77
2023-04-07T05:16:50.664Z,13.25
2023-04-07T05:19:21.548Z,15.10
2023-04-07T05:21:50.409Z,16.05
2023-04-07T05:24:19.887Z,16.08
2023-04-07T05:26:52.817Z,12.85
2023-04-07T05:29:20.063Z,15.77
2023-04-07T05:31:47.336Z,16.55
2023-04-07T05:34:16.273Z,13.73
2023-04-07T05:36:49.375Z,11.82
2023-04-07T05:39:16.929Z,17.80
2023-04-07T05:41:45.837Z,14.30
2023-04-07T05:44:14.906Z,13.88
2023-04-07T05:46:42.729Z,15.57
2023-04-07T05:49:19.740Z,14.07
2023-04-07T05:51:52.953Z,13.45
2023-04-07T05:54:20.910Z,13.60
2023-04-07T05:56:49.363Z,13.50
2023-04-07T05:59:17.033Z,15.07
2023-04-07T06:01:45.529Z,15.38
2023-04-07T06:04:12.763Z,15.35
2023-04-07T06:06:42.857Z,12.15
2023-04-07T06:09:10.441Z,14.90
2023-04-07T06:11:37.759Z,14.27
2023-04-07T06:14:04.842Z,12.70
2023-04-07T06:16:32.014Z,17.55
2023-04-07T06:18:59.090Z,14.68
2023-04-07T06:21:29.161Z,15.38
2023-04-07T06:23:56.402Z,14.38
2023-04-07T06:26:23.819Z,15.15
2023-04-07T06:28:51.139Z,20.23
2023-04-07T06:31:19.594Z,15.80
2023-04-07T06:33:47.230Z,16.13
2023-04-07T06:36:14.684Z,13.90
2023-04-07T06:38:41.979Z,14.30
2023-04-07T06:41:13.073Z,16.88
2023-04-07T06:43:41.016Z,16.60
2023-04-07T06:46:09.016Z,14.18
2023-04-07T06:48:36.379Z,14.05
2023-04-07T06:51:03.728Z,17.27
2023-04-07T06:53:31.272Z,17.10
2023-04-07T06:56:12.268Z,15.70
2023-04-07T06:58:40.517Z,16.15
2023-04-07T07:01:07.889Z,19.75
2023-04-07T07:03:35.276Z,15.95
2023-04-07T07:06:02.581Z,15.32
2023-04-07T07:08:31.199Z,12.77
2023-04-07T07:10:58.666Z,13.35
2023-04-07T07:13:32.152Z,15.82
2023-04-07T07:16:06.056Z,21.98
2023-04-07T07:18:41.922Z,14.63
2023-04-07T07:21:09.447Z,11.63
2023-04-07T07:23:37.756Z,14.48
2023-04-07T07:26:07.868Z,19.10
2023-04-07T07:28:38.365Z,11.98
2023-04-07T07:31:14.911Z,19.33
2023-04-07T07:33:46.616Z,15.35
2023-04-07T07:36:14.086Z,16.23
2023-04-07T07:38:51.674Z,29.40
2023-04-07T07:41:22.290Z,13.07
2023-04-07T07:43:49.738Z,13.32
2023-04-07T07:46:17.194Z,10.60
2023-04-07T07:48:44.636Z,12.75
2023-04-07T07:51:12.024Z,15.70
2023-04-07T07:53:39.217Z,16.58
2023-04-07T07:56:06.350Z,17.75
2023-04-07T07:58:37.400Z,14.35
2023-04-07T08:01:08.028Z,17.38
2023-04-07T08:03:55.300Z,13.57
2023-04-07T08:06:27.148Z,15.18
2023-04-07T08:08:57.634Z,16.02
2023-04-07T08:11:40.740Z,18.05
2023-04-07T08:14:09.788Z,17.30
2023-04-07T08:16:37.577Z,23.60
2023-04-07T08:19:05.405Z,13.85
2023-04-07T08:21:33.193Z,20.55
2023-04-07T08:24:01.220Z,14.43
2023-04-07T08:26:28.360Z,15.63
2023-04-07T08:28:56.228Z,15.00
2023-04-07T08:31:37.228Z,13.25
2023-04-07T08:34:12.761Z,19.45
2023-04-07T08:36:41.882Z,13.63
2023-04-07T08:39:31.029Z,15.27
2023-04-07T08:42:18.195Z,14.75
2023-04-07T08:44:53.334Z,16.80
2023-04-07T08:47:46.164Z,16.20
2023-04-07T08:50:53.218Z,18.13
2023-04-07T08:53:36.834Z,17.13
2023-04-07T08:56:12.176Z,15.07
2023-04-07T08:58:43.828Z,16.90
2023-04-07T09:01:12.333Z,14.68
2023-04-07T09:03:40.989Z,16.70
2023-04-07T09:06:10.999Z,14.95
2023-04-07T09:08:38.227Z,16.52
2023-04-07T09:11:05.516Z,18.25
2023-04-07T09:13:43.543Z,15.52
2023-04-07T09:16:23.547Z,17.45
2023-04-07T09:19:06.704Z,17.25
2023-04-07T09:21:56.395Z,13.68
2023-04-07T09:24:37.052Z,14.48
2023-04-07T09:27:19.876Z,16.13
2023-04-07T09:30:24.203Z,15.57
2023-04-07T09:32:56.223Z,15.20
2023-04-07T09:35:24.687Z,15.73
2023-04-07T09:38:11.230Z,16.02
2023-04-07T09:40:38.713Z,14.45
2023-04-07T09:43:07.311Z,14.55
2023-04-07T09:45:39.264Z,14.35
2023-04-07T09:48:20.603Z,13.07
2023-04-07T09:50:52.289Z,15.65
2023-04-07T09:53:20.687Z,16.23
2023-04-07T09:56:06.467Z,12.10
2023-04-07T09:58:33.940Z,12.85
2023-04-07T10:01:04.403Z,11.15
2023-04-07T10:03:34.269Z,10.38
2023-04-07T10:06:02.094Z,13.38
2023-04-07T10:08:32.623Z,13.18
2023-04-07T10:11:05.761Z,12.10
2023-04-07T10:13:39.313Z,11.48
2023-04-07T10:16:08.136Z,13.48
2023-04-07T10:18:37.376Z,12.32
2023-04-07T10:21:10.763Z,11.98
2023-04-07T10:23:51.619Z,12.90
2023-04-07T10:26:26.565Z,11.10
2023-04-07T10:29:03.268Z,11.77
2023-04-07T10:31:32.569Z,10.80
2023-04-07T10:34:01.514Z,11.35
2023-04-07T10:36:29.207Z,14.30
2023-04-07T10:39:08.621Z,12.48
2023-04-07T10:41:41.488Z,15.25
2023-04-07T10:44:40.767Z,10.57
2023-04-07T10:47:08.666Z,11.85
2023-04-07T10:49:36.598Z,11.85
2023-04-07T10:52:13.105Z,11.13
2023-04-07T10:54:41.502Z,12.70
2023-04-07T10:57:21.090Z,11.32
2023-04-07T11:00:11.575Z,12.02
2023-04-07T11:02:40.677Z,15.07
2023-04-07T11:05:08.968Z,10.50
2023-04-07T11:08:06.886Z,10.45
2023-04-07T11:10:37.349Z,8.93
2023-04-07T11:13:09.044Z,12.50
2023-04-07T11:15:40.225Z,11.43
2023-04-07T11:18:17.168Z,13.68
2023-04-07T11:20:49.384Z,11.40
2023-04-07T11:23:18.515Z,10.73
2023-04-07T11:25:49.056Z,10.40
2023-04-07T11:28:18.617Z,16.48
2023-04-07T11:30:54.431Z,15.52
2023-04-07T11:33:29.792Z,11.38
2023-04-07T11:36:04.990Z,10.18
2023-04-07T11:38:39.209Z,11.20
2023-04-07T11:41:15.497Z,13.02
2023-04-07T11:43:42.826Z,10.80
2023-04-07T11:46:17.191Z,11.35
2023-04-07T11:48:45.751Z,14.70
2023-04-07T11:51:19.240Z,13.20
2023-04-07T11:53:47.979Z,12.25
2023-04-07T11:56:17.617Z,11.82
2023-04-07T11:58:55.447Z,9.98
2023-04-07T12:01:24.804Z,11.55
2023-04-07T12:04:04.405Z,10.23
2023-04-07T12:06:35.633Z,14.38
2023-04-07T12:09:04.153Z,11.50
2023-04-07T12:11:32.949Z,12.85
2023-04-07T12:14:01.385Z,10.88
2023-04-07T12:16:29.075Z,12.65
2023-04-07T12:18:58.657Z,16.40
2023-04-07T12:21:26.798Z,11.70
2023-04-07T12:23:54.011Z,10.70
2023-04-07T12:26:23.385Z,12.02
2023-04-07T12:28:50.715Z,15.65
2023-04-07T12:31:17.799Z,9.65
2023-04-07T12:35:06.134Z,12.82
2023-04-07T12:37:33.346Z,16.98
2023-04-07T12:40:00.592Z,12.85
2023-04-07T12:42:28.967Z,12.57
2023-04-07T12:44:56.706Z,13.20
2023-04-07T12:47:23.972Z,15.68
2023-04-07T12:49:51.149Z,12.23
2023-04-07T12:52:18.882Z,16.40
2023-04-07T12:54:46.722Z,10.23
2023-04-07T12:57:13.935Z,13.80
2023-04-07T12:59:41.267Z,12.80
2023-04-07T13:02:09.934Z,15.55
2023-04-07T13:04:40.742Z,17.17
2023-04-07T13:07:09.668Z,15.23
2023-04-07T13:09:38.981Z,13.70
2023-04-07T13:12:06.111Z,14.27
2023-04-07T13:14:33.145Z,13.27
2023-04-07T13:17:00.400Z,13.43
2023-04-07T13:19:29.748Z,12.85
2023-04-07T13:21:57.160Z,14.43
2023-04-07T13:24:25.069Z,15.02
2023-04-07T13:26:52.691Z,15.50
2023-04-07T13:29:19.981Z,13.13
2023-04-07T13:31:48.478Z,12.23
2023-04-07T13:34:16.121Z,15.65
2023-04-07T13:36:44.418Z,15.30
2023-04-07T13:39:12.212Z,13.60
2023-04-07T13:41:39.226Z,15.73
2023-04-07T13:44:06.604Z,14.75
2023-04-07T13:46:34.006Z,11.60
2023-04-07T13:49:01.085Z,12.15
2023-04-07T13:51:28.247Z,13.68
2023-04-07T13:53:55.488Z,15.90
2023-04-07T13:56:22.578Z,14.35
2023-04-07T13:58:49.600Z,11.57
2023-04-07T14:01:17.382Z,14.73
2023-04-07T14:03:45.206Z,13.35
2023-04-07T14:06:12.511Z,12.65
2023-04-07T14:08:39.896Z,18.15
2023-04-07T14:11:07.028Z,16.42
2023-04-07T14:13:34.175Z,13.02
2023-04-07T14:16:01.222Z,13.77
2023-04-07T14:18:30.224Z,15.23
2023-04-07T14:20:57.383Z,14.45
2023-04-07T14:23:36.498Z,11.95
2023-04-07T14:26:05.095Z,17.83
2023-04-07T14:28:32.211Z,10.73
2023-04-07T14:30:59.539Z,13.30
2023-04-07T14:33:27.123Z,14.88
2023-04-07T14:35:54.248Z,11.50
2023-04-07T14:38:25.856Z,15.75
2023-04-07T14:40:53.332Z,13.93
2023-04-07T14:43:20.691Z,15.93
2023-04-07T14:45:51.077Z,18.23
2023-04-07T14:48:18.549Z,15.70
2023-04-07T14:50:46.152Z,15.80
2023-04-07T14:53:16.371Z,14.98
2023-04-07T14:55:43.543Z,18.05
2023-04-07T14:58:11.635Z,15.85
2023-04-07T15:00:38.756Z,14.85
2023-04-07T15:03:06.061Z,14.82
2023-04-07T15:05:33.476Z,12.88
2023-04-07T15:08:01.327Z,22.83
2023-04-07T15:10:35.850Z,16.83
2023-04-07T15:13:03.293Z,16.50
2023-04-07T15:15:30.557Z,14.57
2023-04-07T15:17:57.886Z,14.25
2023-04-07T15:20:25.261Z,17.98
2023-04-07T15:22:55.860Z,14.15
2023-04-07T15:25:25.907Z,14.70
2023-04-07T15:27:52.988Z,15.13
2023-04-07T15:30:20.776Z,18.05
2023-04-07T15:32:59.249Z,17.02
2023-04-07T15:35:30.046Z,18.42
2023-04-07T15:37:57.463Z,13.57
2023-04-07T15:40:24.611Z,17.55
2023-04-07T15:42:51.933Z,16.52
2023-04-07T15:45:19.025Z,16.17
2023-04-07T15:47:46.254Z,16.15
2023-04-07T15:50:13.693Z,18.52
2023-04-07T15:52:40.767Z,16.75
2023-04-07T15:55:08.616Z,16.65
2023-04-07T15:57:35.678Z,17.90
2023-04-07T16:00:05.970Z,17.75
2023-04-07T16:02:33.466Z,17.27
2023-04-07T16:05:00.708Z,14.00
2023-04-07T16:07:30.696Z,17.95
2023-04-07T16:09:57.845Z,17.45
2023-04-07T16:12:25.290Z,22.48
2023-04-07T16:14:55.327Z,17.98
2023-04-07T16:17:22.634Z,18.85
2023-04-07T16:19:49.782Z,16.92
2023-04-07T16:22:17.246Z,16.88
2023-04-07T16:24:44.666Z,18.35
2023-04-07T16:27:12.042Z,16.73
2023-04-07T16:29:39.071Z,17.05
2023-04-07T16:32:06.903Z,19.15
2023-04-07T16:34:35.392Z,18.08
2023-04-07T16:37:02.682Z,18.27
2023-04-07T16:39:29.806Z,19.98
2023-04-07T16:41:56.883Z,18.02
2023-04-07T16:44:23.949Z,17.25
2023-04-07T16:46:52.800Z,18.52
2023-04-07T16:49:19.840Z,19.05
2023-04-07T16:51:46.872Z,24.15
2023-04-07T16:54:17.192Z,19.05
2023-04-07T16:56:44.278Z,19.05
2023-04-07T16:59:11.446Z,15.02
2023-04-07T17:01:42.022Z,16.60
2023-04-07T17:04:09.385Z,30.67
2023-04-07T17:06:36.588Z,15.48
2023-04-07T17:09:07.367Z,18.17
2023-04-07T17:11:34.443Z,15.35
2023-04-07T17:14:01.826Z,15.60
2023-04-07T17:16:29.036Z,14.18
2023-04-07T17:18:56.936Z,17.00
2023-04-07T17:21:23.992Z,15.27
2023-04-07T17:23:51.748Z,16.23
2023-04-07T17:26:19.118Z,14.23
2023-04-07T17:28:46.541Z,12.75
2023-04-07T17:31:14.112Z,15.57
2023-04-07T17:33:42.374Z,15.98
2023-04-07T17:36:09.500Z,16.45
2023-04-07T17:38:36.584Z,16.63
2023-04-07T17:41:04.442Z,14.23
2023-04-07T17:43:31.802Z,17.73
2023-04-07T17:46:00.232Z,14.23
2023-04-07T17:48:27.766Z,16.65
2023-04-07T17:50:54.841Z,16.63
2023-04-07T17:53:21.837Z,18.20
2023-04-07T17:55:49.896Z,17.70
2023-04-07T17:58:21.032Z,20.55
2023-04-07T18:00:57.991Z,19.27
2023-04-07T18:03:25.686Z,21.38
2023-04-07T18:05:53.409Z,14.07
2023-04-07T18:08:21.081Z,19.15
2023-04-07T18:10:48.153Z,16.45
2023-04-07T18:13:15.588Z,17.10
2023-04-07T18:15:44.316Z,17.08
2023-04-07T18:18:11.511Z,15.23
2023-04-07T18:20:38.539Z,15.07
2023-04-07T18:23:06.181Z,16.33
2023-04-07T18:25:33.271Z,16.35
2023-04-07T18:28:02.001Z,18.67
2023-04-07T18:30:29.035Z,16.67
2023-04-07T18:32:56.332Z,17.13
2023-04-07T18:35:23.650Z,15.95
2023-04-07T18:37:50.991Z,17.27
2023-04-07T18:40:18.066Z,15.90
2023-04-07T18:42:45.273Z,17.05
2023-04-07T18:45:14.936Z,18.48
2023-04-07T18:47:45.338Z,23.65
2023-04-07T18:50:12.408Z,19.88
2023-04-07T18:52:39.812Z,19.73
2023-04-07T18:55:08.957Z,20.98
2023-04-07T18:57:36.114Z,29.45
2023-04-07T19:00:04.076Z,20.05
2023-04-07T19:02:31.404Z,21.40
2023-04-07T19:04:59.093Z,23.20
2023-04-07T19:07:26.605Z,21.85
2023-04-07T19:09:53.936Z,22.30
2023-04-07T19:12:21.200Z,20.13
2023-04-07T19:14:48.451Z,24.20
2023-04-07T19:17:15.793Z,22.40
2023-04-07T19:19:42.887Z,23.15
2023-04-07T19:22:10.986Z,25.00
2023-04-07T19:24:39.466Z,26.45
2023-04-07T19:27:06.948Z,24.75
2023-04-07T19:29:38.093Z,23.60
2023-04-07T19:32:05.989Z,22.73
2023-04-07T19:34:39.232Z,24.42
2023-04-07T19:37:06.779Z,25.23
2023-04-07T19:39:35.422Z,26.25
2023-04-07T19:42:02.471Z,26.75
2023-04-07T19:44:29.537Z,20.17
2023-04-07T19:46:57.322Z,22.95
2023-04-07T19:49:24.429Z,27.38
2023-04-07T19:51:54.092Z,24.83
2023-04-07T19:54:22.832Z,24.65
2023-04-07T19:56:49.951Z,26.38
2023-04-07T19:59:16.889Z,24.60
2023-04-07T20:01:44.012Z,25.85
2023-04-07T20:04:11.478Z,24.65
2023-04-07T20:06:40.540Z,24.60
2023-04-07T20:09:07.558Z,27.08
2023-04-07T20:11:34.569Z,22.83
2023-04-07T20:14:01.661Z,21.88
2023-04-07T20:16:34.304Z,23.13
2023-04-07T20:19:01.724Z,22.73
2023-04-07T20:21:28.932Z,23.00
2023-04-07T20:23:56.450Z,22.60
2023-04-07T20:26:23.544Z,23.25
2023-04-07T20:28:51.154Z,20.35
2023-04-07T20:31:19.385Z,18.95
2023-04-07T20:33:46.551Z,22.48
2023-04-07T20:36:13.675Z,21.63
2023-04-07T20:38:43.958Z,22.73
2023-04-07T20:41:16.872Z,17.48
2023-04-07T20:43:43.985Z,19.83
2023-04-07T20:46:11.421Z,21.15
2023-04-07T20:48:38.982Z,15.88
2023-04-07T20:51:06.879Z,17.65
2023-04-07T20:53:34.550Z,21.40
2023-04-07T20:56:02.998Z,19.17
2023-04-07T20:58:30.324Z,18.73
2023-04-07T21:01:01.507Z,17.38
2023-04-07T21:03:30.888Z,16.92
2023-04-07T21:05:58.345Z,18.17
2023-04-07T21:08:25.688Z,18.58
2023-04-07T21:10:53.446Z,18.02
2023-04-07T21:13:22.356Z,19.80
2023-04-07T21:15:49.441Z,15.50
2023-04-07T21:18:19.186Z,16.20
2023-04-07T21:20:47.312Z,15.25
2023-04-07T21:23:14.372Z,16.58
2023-04-07T21:25:41.502Z,21.45
2023-04-07T21:28:09.463Z,16.80
2023-04-07T21:30:41.941Z,16.67
2023-04-07T21:35:36.054Z,16.73
2023-04-07T21:38:03.404Z,17.27
2023-04-07T21:40:30.479Z,16.45
2023-04-07T21:42:57.807Z,15.75
2023-04-07T21:45:26.914Z,15.38
2023-04-07T21:47:54.064Z,16.05
2023-04-07T21:50:21.159Z,18.40
2023-04-07T21:52:51.230Z,16.33
2023-04-07T21:55:21.205Z,15.25
2023-04-07T21:57:48.484Z,21.35
2023-04-07T22:00:16.540Z,17.70
2023-04-07T22:02:45.693Z,19.80
2023-04-07T22:05:13.154Z,22.40
2023-04-07T22:07:40.811Z,22.25
2023-04-07T22:10:09.707Z,19.13
2023-04-07T22:12:36.849Z,19.33
2023-04-07T22:15:04.457Z,18.48
2023-04-07T22:17:31.523Z,23.30
2023-04-07T22:19:58.853Z,20.55
2023-04-07T22:22:29.636Z,21.38
2023-04-07T22:24:56.743Z,20.02
2023-04-07T22:27:23.738Z,26.23
2023-04-07T22:29:51.292Z,18.27
2023-04-07T22:32:18.512Z,19.08
2023-04-07T22:34:46.731Z,21.40
2023-04-07T22:37:14.098Z,20.58
2023-04-07T22:39:43.888Z,19.00
2023-04-07T22:42:11.162Z,17.15
2023-04-07T22:44:38.494Z,17.83
2023-04-07T22:47:05.729Z,27.00
2023-04-07T22:49:33.161Z,22.92
2023-04-07T22:52:00.368Z,19.40
2023-04-07T22:54:27.799Z,26.98
2023-04-07T22:56:55.261Z,25.05
2023-04-07T22:59:25.419Z,26.05
2023-04-07T23:01:52.569Z,24.65
2023-04-07T23:04:21.527Z,27.17
2023-04-07T23:06:48.769Z,26.27
2023-04-07T23:09:16.326Z,25.50
2023-04-07T23:11:47.275Z,25.10
2023-04-07T23:14:15.057Z,22.52
2023-04-07T23:16:42.112Z,26.08
2023-04-07T23:19:15.391Z,25.88
2023-04-07T23:21:43.440Z,24.10
2023-04-07T23:24:10.902Z,27.45
2023-04-07T23:26:38.249Z,29.65
2023-04-07T23:29:09.341Z,25.33
2023-04-07T23:31:36.451Z,23.98
2023-04-07T23:34:04.509Z,25.45
2023-04-07T23:36:31.669Z,28.88
2023-04-07T23:38:58.851Z,27.33
2023-04-07T23:41:26.045Z,25.08
2023-04-07T23:43:53.060Z,25.30
2023-04-07T23:46:21.455Z,27.00
2023-04-07T23:48:49.334Z,24.48
2023-04-07T23:51:16.813Z,25.13
2023-04-07T23:53:43.883Z,30.25
2023-04-07T23:56:11.111Z,28.80
2023-04-07T23:58:38.163Z,26.10
